Time;durP1;ratioP1;P1;durP2;ratioP2;P2;SDS_P1;SDS_P2;PMS_P1;PMS_P2;Temp;Humidity;BMP_temperature;BMP_pressure;BME280_temperature;BME280_humidity;BME280_pressure;Samples;Min_cycle;Max_cycle;Signal;HPM_P1;HPM_P2
2021/12/23 00:00:16;;;;;;;;;62.25;51.00;;;;;0.27;80.48;101222.19;5099613;27;45295;-77
2021/12/23 00:02:42;;;;;;;;;57.75;48.75;;;;;0.30;80.59;101221.19;5097935;27;46463;-77
2021/12/23 00:05:09;;;;;;;;;57.50;46.25;;;;;0.27;80.58;101216.16;5099429;27;45574;-77
2021/12/23 00:07:35;;;;;;;;;62.50;51.00;;;;;0.27;80.46;101219.56;5099360;27;45281;-77
2021/12/23 00:12:28;;;;;;;;;65.25;51.50;;;;;0.22;81.07;101219.03;5099208;27;45222;-78
2021/12/23 00:14:55;;;;;;;;;58.25;48.00;;;;;0.15;80.99;101205.50;5099634;27;47048;-77
2021/12/23 00:25:44;;;;;;;;;58.25;48.75;;;;;0.15;80.92;101217.75;5094732;27;45884;-77
2021/12/23 00:28:09;;;;;;;;;61.25;48.25;;;;;0.05;81.07;101197.38;5102773;27;45344;-77
2021/12/23 00:30:34;;;;;;;;;59.00;49.00;;;;;0.10;80.64;101200.56;5102730;27;45219;-77
2021/12/23 00:33:00;;;;;;;;;56.50;46.00;;;;;0.09;80.90;101204.09;5102588;27;45364;-77
2021/12/23 00:35:25;;;;;;;;;60.50;49.50;;;;;0.06;80.49;101196.44;5102586;27;45745;-77
2021/12/23 00:37:57;;;;;;;;;62.75;50.50;;;;;0.02;80.59;101189.72;5114313;27;45297;-77
2021/12/23 00:40:23;;;;;;;;;60.00;50.25;;;;;0.02;80.79;101181.03;5123618;27;45277;-77
2021/12/23 00:42:48;;;;;;;;;57.25;42.75;;;;;0.07;81.20;101197.28;5123131;27;45210;-77
2021/12/23 00:45:13;;;;;;;;;58.00;48.25;;;;;-0.04;80.84;101172.66;5123059;27;46107;-77
2021/12/23 00:47:39;;;;;;;;;58.50;47.00;;;;;-0.15;80.85;101164.63;5123037;27;45143;-77
2021/12/23 00:50:05;;;;;;;;;61.00;50.00;;;;;-0.15;81.04;101169.88;5123279;27;45317;-77
2021/12/23 00:52:36;;;;;;;;;56.25;47.00;;;;;-0.20;80.55;101162.31;5122482;27;45288;-77
2021/12/23 00:55:06;;;;;;;;;58.00;47.75;;;;;-0.18;81.22;101178.72;5123022;27;45185;-77
2021/12/23 00:57:36;;;;;;;;;61.50;51.00;;;;;-0.20;81.24;101184.97;5122784;27;45266;-77
2021/12/23 01:00:05;;;;;;;;;51.75;43.75;;;;;-0.18;80.56;101186.53;5122938;27;45303;-77
2021/12/23 01:02:31;;;;;;;;;52.25;43.75;;;;;-0.27;81.29;101172.28;5121459;27;46154;-77
2021/12/23 01:04:57;;;;;;;;;57.50;48.50;;;;;-0.21;80.92;101176.28;5121244;27;47205;-77
2021/12/23 01:07:23;;;;;;;;;59.00;47.00;;;;;-0.24;81.16;101171.25;5122597;27;45272;-77
2021/12/23 01:09:48;;;;;;;;;56.75;47.00;;;;;-0.30;81.19;101163.78;5122902;27;45322;-76
2021/12/23 01:12:18;;;;;;;;;59.00;47.00;;;;;-0.24;81.28;101184.31;5122554;27;45332;-77
2021/12/23 01:14:55;;;;;;;;;64.25;52.50;;;;;-0.32;81.25;101161.28;5122498;27;45226;-77
2021/12/23 01:17:31;;;;;;;;;58.75;49.25;;;;;-0.27;81.34;101181.91;5122796;27;45368;-77
2021/12/23 01:19:57;;;;;;;;;59.00;47.75;;;;;-0.38;81.02;101165.06;5122599;27;45332;-77
2021/12/23 01:22:23;;;;;;;;;57.75;47.25;;;;;-0.36;80.99;101166.78;5122260;27;45346;-77
2021/12/23 01:24:50;;;;;;;;;66.25;51.25;;;;;-0.44;81.55;101157.63;5122335;27;46181;-77
2021/12/23 01:27:16;;;;;;;;;56.00;46.75;;;;;-0.46;81.68;101153.41;5121062;27;45294;-77
2021/12/23 01:29:42;;;;;;;;;59.75;47.00;;;;;-0.49;81.00;101145.75;5121077;27;45313;-77
2021/12/23 01:32:08;;;;;;;;;55.25;45.50;;;;;-0.42;80.96;101158.34;5120917;27;46199;-77
2021/12/23 01:34:35;;;;;;;;;52.25;43.00;;;;;-0.41;nan;101152.22;5122457;27;45385;-78
2021/12/23 01:37:02;;;;;;;;;58.25;44.00;;;;;-0.43;81.71;101148.84;5115787;27;45402;-77
2021/12/23 01:39:28;;;;;;;;;55.50;48.00;;;;;-0.46;81.52;101145.56;5101658;27;45385;-77
2021/12/23 01:41:53;;;;;;;;;59.00;48.25;;;;;-0.48;81.18;101143.03;5100296;27;46087;-77
2021/12/23 01:44:19;;;;;;;;;64.25;51.25;;;;;-0.46;81.33;101142.97;5101256;27;46082;-77
2021/12/23 01:46:44;;;;;;;;;61.75;49.00;;;;;-0.47;81.49;101147.38;5101487;27;45190;-78
2021/12/23 01:49:10;;;;;;;;;52.75;45.50;;;;;-0.56;81.23;101143.53;5101656;27;45217;-77
2021/12/23 01:51:35;;;;;;;;;58.75;48.00;;;;;-0.52;81.50;101147.63;5100922;27;45487;-77
2021/12/23 01:54:01;;;;;;;;;56.00;46.00;;;;;-0.52;81.22;101157.22;5101345;27;46498;-76
2021/12/23 01:56:27;;;;;;;;;60.25;48.75;;;;;-0.53;80.88;101155.56;5101301;27;45199;-77
2021/12/23 01:58:53;;;;;;;;;56.75;45.75;;;;;-0.61;81.16;101140.34;5101389;27;45237;-78
2021/12/23 02:01:18;;;;;;;;;54.25;45.00;;;;;-0.53;81.45;101151.19;5099935;27;46139;-77
2021/12/23 02:03:44;;;;;;;;;57.25;46.00;;;;;-0.53;81.50;101148.56;5100870;27;46160;-77
2021/12/23 02:06:10;;;;;;;;;56.75;47.50;;;;;-0.59;81.60;101129.81;5101020;27;45380;-77
2021/12/23 02:08:37;;;;;;;;;61.50;50.00;;;;;-0.54;81.67;101136.44;5101219;27;45221;-77
2021/12/23 02:11:08;;;;;;;;;57.25;48.25;;;;;-0.55;81.53;101132.16;5100974;27;45506;-77
2021/12/23 02:13:35;;;;;;;;;59.75;50.00;;;;;-0.49;82.50;101122.25;5100996;27;45255;-77
2021/12/23 02:16:01;;;;;;;;;57.75;46.00;;;;;-0.44;81.86;101109.75;5101108;27;45324;-77
2021/12/23 02:18:28;;;;;;;;;56.00;46.25;;;;;-0.48;82.00;101103.88;5101199;27;45349;-77
2021/12/23 02:20:54;;;;;;;;;60.25;49.50;;;;;-0.43;82.10;101108.81;5099551;27;46124;-77
2021/12/23 02:23:20;;;;;;;;;61.00;49.00;;;;;-0.45;82.04;101101.06;5100697;27;46569;-77
2021/12/23 02:25:46;;;;;;;;;57.25;47.25;;;;;-0.46;81.99;101099.41;5100821;27;45158;-77
2021/12/23 02:28:19;;;;;;;;;54.00;46.75;;;;;-0.32;82.27;101109.03;5100949;27;45138;-77
2021/12/23 02:30:51;;;;;;;;;52.50;46.00;;;;;-0.42;81.92;101095.66;5100840;27;45535;-77
2021/12/23 02:33:17;;;;;;;;;58.50;47.00;;;;;-0.35;82.26;101101.38;5100815;27;46257;-77
2021/12/23 02:35:42;;;;;;;;;55.75;45.75;;;;;-0.30;82.16;101112.38;5100874;27;45302;-77
2021/12/23 02:38:08;;;;;;;;;55.75;44.00;;;;;-0.28;82.35;101104.44;5114357;27;45801;-77
2021/12/23 02:40:39;;;;;;;;;58.75;48.00;;;;;-0.15;82.23;101123.66;5121253;27;45428;-77
2021/12/23 02:43:14;;;;;;;;;46.25;41.00;;;;;-0.21;82.19;101108.34;5121137;27;46366;-77
2021/12/23 02:45:43;;;;;;;;;59.00;47.00;;;;;-0.12;82.44;101112.16;5121393;27;45395;-77
2021/12/23 02:48:17;;;;;;;;;52.75;46.00;;;;;-0.11;82.31;101106.03;5121367;27;45323;-77
2021/12/23 02:50:45;;;;;;;;;54.75;44.00;;;;;-0.13;82.58;101103.50;5121023;27;45750;-77
2021/12/23 02:53:12;;;;;;;;;50.25;42.00;;;;;-0.15;82.43;101087.06;5120632;27;46284;-77
2021/12/23 02:55:37;;;;;;;;;55.50;44.75;;;;;-0.04;82.29;101094.25;5121145;27;45296;-77
2021/12/23 02:58:03;;;;;;;;;55.50;46.25;;;;;-0.02;82.66;101084.53;5121258;27;45295;-77
2021/12/23 03:00:30;;;;;;;;;54.75;46.25;;;;;0.02;82.08;101081.72;5120911;27;45496;-77
2021/12/23 03:02:55;;;;;;;;;60.00;48.00;;;;;0.04;82.25;101080.69;5119452;27;47576;-77
2021/12/23 03:05:21;;;;;;;;;57.25;46.75;;;;;-0.04;82.27;101067.25;5119616;27;45499;-77
2021/12/23 03:07:46;;;;;;;;;52.25;45.00;;;;;0.10;82.20;101082.09;5120932;27;45389;-77
2021/12/23 03:10:12;;;;;;;;;58.75;48.25;;;;;0.11;82.14;101081.13;5119679;27;46343;-77
2021/12/23 03:12:37;;;;;;;;;58.75;49.25;;;;;0.15;81.93;101080.00;5120784;27;46172;-77
2021/12/23 03:15:03;;;;;;;;;54.75;45.00;;;;;0.16;82.20;101068.63;5120685;27;45277;-77
2021/12/23 03:17:30;;;;;;;;;51.75;46.25;;;;;0.14;82.24;101064.41;5120869;27;45509;-77
2021/12/23 03:19:56;;;;;;;;;52.50;45.50;;;;;0.19;81.82;101071.03;5120763;27;45257;-77
2021/12/23 03:22:21;;;;;;;;;56.00;46.25;;;;;0.12;82.46;101057.50;5119055;27;48050;-77
2021/12/23 03:24:46;;;;;;;;;59.75;47.50;;;;;0.19;81.86;101071.03;5120699;27;45256;-77
2021/12/23 03:27:12;;;;;;;;;51.50;43.50;;;;;0.08;82.56;101053.41;5120909;27;45139;-77
2021/12/23 03:29:38;;;;;;;;;57.75;46.75;;;;;0.18;82.55;101063.31;5120481;27;45494;-77
2021/12/23 03:32:04;;;;;;;;;48.75;42.75;;;;;0.24;82.48;101071.56;5119050;27;48232;-77
2021/12/23 03:34:29;;;;;;;;;50.25;43.25;;;;;0.27;82.29;101061.88;5119265;27;45814;-77
2021/12/23 03:36:54;;;;;;;;;47.75;41.75;;;;;0.28;82.10;101068.75;5116301;27;45375;-77
2021/12/23 03:39:20;;;;;;;;;53.25;42.75;;;;;0.26;82.36;101061.03;5099844;27;45272;-77
2021/12/23 03:41:46;;;;;;;;;59.00;48.25;;;;;0.26;82.38;101061.03;5099793;27;46207;-77
2021/12/23 03:44:12;;;;;;;;;50.50;43.50;;;;;0.22;82.22;101047.31;5098486;27;45378;-77
2021/12/23 03:46:38;;;;;;;;;55.50;46.25;;;;;0.29;81.80;101052.13;5099999;27;45401;-77
2021/12/23 03:49:08;;;;;;;;;46.75;41.75;;;;;0.32;82.26;101049.31;5100275;27;45333;-77
2021/12/23 03:51:34;;;;;;;;;52.00;45.25;;;;;0.30;82.16;101049.41;5103061;27;46194;-77
2021/12/23 03:54:00;;;;;;;;;42.75;40.75;;;;;0.29;82.54;101044.28;5102788;27;45387;-78
2021/12/23 03:56:26;;;;;;;;;49.25;41.75;;;;;0.32;82.51;101039.72;5103379;27;45254;-77
2021/12/23 03:58:51;;;;;;;;;55.75;45.25;;;;;0.29;81.86;101026.84;5101745;27;45910;-77
2021/12/23 04:01:16;;;;;;;;;49.50;42.75;;;;;0.34;82.58;101021.31;5103155;27;45943;-77
2021/12/23 04:03:42;;;;;;;;;49.75;44.75;;;;;0.32;82.55;101018.78;5102846;27;45336;-77
2021/12/23 04:06:07;;;;;;;;;54.50;45.00;;;;;0.31;82.72;101011.03;5101602;27;45720;-77
2021/12/23 04:08:33;;;;;;;;;59.75;45.50;;;;;0.31;82.52;101014.50;5101750;27;46436;-77
2021/12/23 04:10:59;;;;;;;;;48.75;43.00;;;;;0.33;82.26;101006.56;5102888;27;45321;-78
2021/12/23 04:13:26;;;;;;;;;58.50;47.25;;;;;0.41;82.62;101021.72;5102970;27;45226;-78
2021/12/23 04:15:52;;;;;;;;;57.50;42.75;;;;;0.43;82.48;101025.09;5103204;27;45257;-77
2021/12/23 04:18:17;;;;;;;;;48.25;42.00;;;;;0.36;82.24;101004.56;5102869;27;45523;-77
2021/12/23 04:20:53;;;;;;;;;56.50;42.50;;;;;0.39;82.47;101011.38;5102845;27;46218;-77
2021/12/23 04:23:23;;;;;;;;;56.00;43.50;;;;;0.36;82.27;101003.75;5101329;27;45263;-77
2021/12/23 04:25:49;;;;;;;;;51.00;43.75;;;;;0.32;82.29;100990.03;5102937;27;45299;-77
2021/12/23 04:28:15;;;;;;;;;52.00;43.50;;;;;0.42;82.62;101005.13;5102605;27;45262;-77
2021/12/23 04:30:40;;;;;;;;;56.00;45.50;;;;;0.33;82.69;100990.88;5102710;27;45167;-77
2021/12/23 04:33:06;;;;;;;;;49.00;41.25;;;;;0.36;82.55;100990.66;5102610;27;45222;-78
2021/12/23 04:35:31;;;;;;;;;51.75;44.75;;;;;0.44;82.33;100998.84;5102821;27;45507;-78
2021/12/23 04:37:56;;;;;;;;;52.75;43.50;;;;;0.44;82.16;100993.59;5115283;27;46578;-77
2021/12/23 04:40:22;;;;;;;;;48.25;42.50;;;;;0.39;82.21;100981.78;5123082;27;45369;-77
2021/12/23 04:42:47;;;;;;;;;57.25;44.00;;;;;0.46;82.41;100993.50;5123279;27;45205;-77
2021/12/23 04:45:13;;;;;;;;;52.25;43.75;;;;;0.40;82.78;100975.59;5121919;27;45442;-77
2021/12/23 04:47:39;;;;;;;;;34.50;32.25;;;;;0.49;82.17;100985.47;5123133;27;45317;-77
2021/12/23 04:50:07;;;;;;;;;59.25;46.75;;;;;0.41;82.43;100972.88;5123034;27;45275;-77
2021/12/23 04:52:33;;;;;;;;;52.00;43.25;;;;;0.47;82.27;100982.09;5122473;27;45329;-77
2021/12/23 04:54:58;;;;;;;;;41.00;37.00;;;;;0.42;82.32;100974.56;5122935;27;45264;-77
2021/12/23 04:57:24;;;;;;;;;48.75;42.75;;;;;0.46;82.47;100983.03;5122898;27;45430;-77
2021/12/23 04:59:49;;;;;;;;;53.00;44.50;;;;;0.42;82.78;100965.88;5122489;27;45692;-77
2021/12/23 05:02:15;;;;;;;;;57.00;46.25;;;;;0.54;82.32;100991.19;5121454;27;45854;-77
2021/12/23 05:04:40;;;;;;;;;56.75;45.50;;;;;0.58;82.76;100987.47;5122912;27;45472;-77
2021/12/23 05:07:06;;;;;;;;;50.75;42.75;;;;;0.58;83.09;100976.16;5122778;27;45446;-77
2021/12/23 05:09:31;;;;;;;;;50.50;43.25;;;;;0.59;82.68;100980.44;5122641;27;45232;-78
2021/12/23 05:11:56;;;;;;;;;51.25;45.00;;;;;0.62;82.56;100977.63;5122696;27;45211;-77
2021/12/23 05:14:22;;;;;;;;;50.75;43.00;;;;;0.56;82.68;100963.19;5122859;27;45850;-77
2021/12/23 05:16:47;;;;;;;;;55.75;46.75;;;;;0.65;82.77;100971.38;5122612;27;45533;-77
2021/12/23 05:19:12;;;;;;;;;54.75;45.50;;;;;0.69;82.80;100981.50;5121062;27;46863;-77
2021/12/23 05:21:38;;;;;;;;;56.25;45.75;;;;;0.65;82.48;100964.34;5122282;27;45209;-77
2021/12/23 05:24:03;;;;;;;;;58.50;46.25;;;;;0.57;82.42;100950.94;5122839;27;45210;-77
2021/12/23 05:26:29;;;;;;;;;49.50;42.50;;;;;0.61;82.54;100968.09;5122459;27;45566;-78
2021/12/23 05:28:54;;;;;;;;;48.25;40.50;;;;;0.62;82.92;100951.44;5122218;27;46483;-78
2021/12/23 05:31:19;;;;;;;;;52.50;44.25;;;;;0.68;82.68;100947.59;5122315;27;45280;-77
2021/12/23 05:33:45;;;;;;;;;54.00;45.25;;;;;0.74;82.94;100949.78;5122507;27;45362;-77
2021/12/23 05:36:10;;;;;;;;;47.00;40.00;;;;;0.75;82.76;100948.88;5122128;27;45332;-77
2021/12/23 05:38:35;;;;;;;;;62.25;50.50;;;;;0.70;83.38;100933.47;5103582;27;46470;-77
2021/12/23 05:41:01;;;;;;;;;51.25;40.75;;;;;0.81;82.39;100944.97;5101537;27;45335;-77
2021/12/23 05:43:26;;;;;;;;;51.00;44.25;;;;;0.65;82.61;100903.34;5101748;27;45356;-77
2021/12/23 05:45:51;;;;;;;;;56.50;45.75;;;;;0.79;82.74;100928.53;5100208;27;45273;-77
2021/12/23 05:48:17;;;;;;;;;50.75;44.25;;;;;0.80;83.42;100915.34;5100018;27;47807;-77
2021/12/23 05:50:42;;;;;;;;;58.75;49.00;;;;;0.86;83.32;100914.94;5101502;27;45296;-78
2021/12/23 05:53:08;;;;;;;;;56.50;44.00;;;;;0.90;82.87;100925.19;5099678;27;45331;-78
2021/12/23 05:55:33;;;;;;;;;47.50;40.50;;;;;0.88;82.95;100920.91;5101310;27;45301;-77
2021/12/23 05:57:59;;;;;;;;;55.50;45.00;;;;;0.91;82.57;100913.78;5101304;27;45411;-78
2021/12/23 06:00:31;;;;;;;;;50.75;44.75;;;;;1.00;82.80;100927.06;5101359;27;45305;-77
2021/12/23 06:02:58;;;;;;;;;50.00;41.25;;;;;0.98;82.87;100915.84;5099692;27;45336;-77
2021/12/23 06:05:24;;;;;;;;;53.00;44.50;;;;;1.07;82.83;100922.22;5099781;27;46061;-79
2021/12/23 06:07:50;;;;;;;;;45.75;39.25;;;;;1.04;83.16;100917.19;5099487;27;48164;-79
2021/12/23 06:10:16;;;;;;;;;50.50;43.75;;;;;1.10;83.41;100910.69;5099797;27;45796;-79
2021/12/23 06:12:42;;;;;;;;;55.75;46.00;;;;;1.07;83.18;100909.13;5098626;27;45316;-79
2021/12/23 06:15:08;;;;;;;;;56.25;46.75;;;;;1.16;82.54;100923.34;5100798;27;45231;-80
2021/12/23 06:17:34;;;;;;;;;55.25;44.25;;;;;1.21;83.02;100918.66;5099619;27;47145;-79
2021/12/23 06:20:00;;;;;;;;;146.00;138.75;;;;;1.23;82.59;100919.34;5100996;27;45444;-80
2021/12/23 06:22:26;;;;;;;;;93.67;80.00;;;;;1.25;83.14;100914.00;5100824;27;45466;-82
2021/12/23 06:24:51;;;;;;;;;46.75;40.25;;;;;1.32;82.91;100922.28;5100850;27;45321;-82
2021/12/23 06:27:20;;;;;;;;;53.75;45.00;;;;;1.33;82.72;100910.84;5100809;27;45365;-80
2021/12/23 06:29:46;;;;;;;;;44.50;40.75;;;;;1.35;82.57;100922.88;5100666;27;45311;-81
2021/12/23 06:32:11;;;;;;;;;57.00;44.50;;;;;1.46;82.67;100923.91;5100747;27;45337;-80
2021/12/23 06:34:36;;;;;;;;;45.25;40.00;;;;;1.43;82.42;100918.91;5100817;27;45759;-82
2021/12/23 06:37:04;;;;;;;;;39.50;36.50;;;;;1.48;82.37;100920.25;5105596;27;45517;-81
2021/12/23 06:39:32;;;;;;;;;49.75;42.75;;;;;1.43;82.30;100918.91;5121390;27;45227;-80
2021/12/23 06:41:57;;;;;;;;;59.75;49.00;;;;;1.41;82.62;100915.56;5119937;27;45381;-80
2021/12/23 06:44:23;;;;;;;;;46.75;40.50;;;;;1.43;82.94;100916.28;5121104;27;45499;-80
2021/12/23 06:46:49;;;;;;;;;51.50;43.00;;;;;1.46;82.60;100909.03;5119526;27;47204;-81
2021/12/23 06:49:14;;;;;;;;;46.25;41.00;;;;;1.47;82.45;100920.34;5121091;27;45236;-80
2021/12/23 06:51:39;;;;;;;;;53.50;44.25;;;;;1.41;82.42;100905.06;5121144;27;45316;-81
2021/12/23 06:54:05;;;;;;;;;41.50;37.50;;;;;1.52;82.18;100926.09;5120827;27;45265;-80
2021/12/23 06:56:30;;;;;;;;;41.50;38.00;;;;;1.51;82.81;100925.28;5102219;27;45282;-80
2021/12/23 06:58:56;;;;;;;;;45.25;40.25;;;;;1.54;82.56;100928.59;5078560;28;45909;-80
2021/12/23 07:01:21;;;;;;;;;36.75;36.75;;;;;1.44;82.59;100910.09;5080145;27;45470;-78
2021/12/23 07:06:26;;;;;;;;;54.25;41.50;;;;;1.54;82.67;100915.50;5079428;27;46177;-81
2021/12/23 07:08:54;;;;;;;;;49.50;42.50;;;;;1.60;82.96;100929.00;5078303;28;45746;-81
2021/12/23 07:11:19;;;;;;;;;52.75;44.25;;;;;1.54;82.15;100915.50;5078418;28;45326;-80
2021/12/23 07:13:45;;;;;;;;;44.50;40.75;;;;;1.54;82.33;100911.09;5079553;28;45157;-81
2021/12/23 07:16:10;;;;;;;;;51.00;42.50;;;;;1.59;82.56;100922.06;5079581;27;45955;-81
2021/12/23 07:18:35;;;;;;;;;50.00;40.50;;;;;1.48;82.47;100908.91;5079739;28;45266;-81
2021/12/23 07:21:01;;;;;;;;;47.75;40.50;;;;;1.62;81.88;100928.91;5079538;28;45369;-78
2021/12/23 07:23:26;;;;;;;;;44.25;39.50;;;;;1.68;82.58;100941.56;5080691;28;45769;-80
2021/12/23 07:25:52;;;;;;;;;47.00;40.25;;;;;1.70;82.56;100938.81;5083229;27;45302;-79
2021/12/23 07:28:17;;;;;;;;;48.75;39.75;;;;;1.71;83.12;100941.31;5083707;28;45311;-80
2021/12/23 07:30:42;;;;;;;;;48.75;42.50;;;;;1.66;82.54;100937.34;5083810;27;45497;-79
2021/12/23 07:33:08;;;;;;;;;50.50;43.25;;;;;1.75;82.81;100941.94;5083052;28;45388;-80
2021/12/23 07:35:33;;;;;;;;;50.00;41.00;;;;;1.73;82.51;100941.19;5083118;27;46245;-79
2021/12/23 07:38:00;;;;;;;;;53.50;43.00;;;;;1.74;81.97;100942.91;5109577;27;45221;-79
2021/12/23 07:40:26;;;;;;;;;44.50;40.50;;;;;1.76;82.27;100941.84;5124176;27;45421;-80
2021/12/23 07:42:57;;;;;;;;;52.25;42.25;;;;;1.80;82.08;100942.47;5117537;27;45321;-80
2021/12/23 07:45:26;;;;;;;;;48.50;41.75;;;;;1.84;81.78;100949.13;5090351;27;45507;-79
2021/12/23 07:47:51;;;;;;;;;44.25;39.00;;;;;1.79;81.50;100951.25;5103111;27;45466;-80
2021/12/23 07:50:18;;;;;;;;;46.50;39.00;;;;;1.72;81.65;100943.00;5106810;27;45322;-80
2021/12/23 07:52:43;;;;;;;;;46.25;40.00;;;;;1.74;82.31;100943.72;5104239;27;45260;-80
2021/12/23 07:55:09;;;;;;;;;51.25;43.25;;;;;1.78;82.36;100946.97;5105247;27;45387;-79
2021/12/23 07:57:34;;;;;;;;;53.75;43.50;;;;;1.87;82.19;100959.41;5104257;27;45255;-79
2021/12/23 08:00:01;;;;;;;;;71.75;56.25;;;;;1.83;82.93;100938.75;5102448;27;45341;-81
2021/12/23 08:02:26;;;;;;;;;83.25;66.25;;;;;1.94;82.44;100945.84;5102862;27;45317;-79
2021/12/23 08:04:52;;;;;;;;;52.50;44.00;;;;;1.88;81.91;100937.47;5102994;27;45365;-79
2021/12/23 08:07:17;;;;;;;;;51.25;43.00;;;;;1.87;82.82;100933.19;5102870;27;45241;-80
2021/12/23 08:09:42;;;;;;;;;50.50;44.25;;;;;1.94;81.87;100940.63;5103302;27;45310;-81
2021/12/23 08:12:09;;;;;;;;;54.75;44.75;;;;;2.03;81.81;100958.25;5102967;27;45168;-81
2021/12/23 08:14:35;;;;;;;;;47.00;40.00;;;;;1.98;81.92;100944.66;5101345;27;47069;-80
2021/12/23 08:17:00;;;;;;;;;58.25;48.25;;;;;2.09;82.46;100960.44;5101380;27;46061;-80
2021/12/23 08:19:26;;;;;;;;;55.25;45.75;;;;;2.01;81.52;100942.66;5111619;27;45206;-79
2021/12/23 08:21:51;;;;;;;;;47.00;42.50;;;;;2.06;82.13;100947.56;5105145;27;46087;-79
2021/12/23 08:24:17;;;;;;;;;52.25;43.50;;;;;2.08;82.01;100950.91;5104437;27;48199;-80
2021/12/23 08:26:50;;;;;;;;;52.50;42.00;;;;;2.10;81.71;100956.03;5107215;27;45278;-79
2021/12/23 08:29:18;;;;;;;;;46.50;39.50;;;;;2.07;81.37;100946.63;5105858;27;45278;-80
2021/12/23 08:31:44;;;;;;;;;50.75;42.50;;;;;2.16;80.83;100954.75;5108802;27;45479;-80
2021/12/23 08:34:10;;;;;;;;;46.75;39.75;;;;;2.17;81.56;100962.50;5104248;27;47655;-79
2021/12/23 08:36:36;;;;;;;;;50.00;43.25;;;;;2.10;81.48;100950.81;5103673;27;45322;-79
2021/12/23 08:39:02;;;;;;;;;53.75;42.50;;;;;2.22;80.91;100970.84;5105716;27;45225;-79
2021/12/23 08:41:27;;;;;;;;;54.00;44.00;;;;;2.25;81.85;100956.69;5104344;27;45204;-80
2021/12/23 08:43:53;;;;;;;;;44.25;39.00;;;;;2.30;82.00;100948.50;5103695;27;48080;-79
2021/12/23 08:46:18;;;;;;;;;43.75;39.00;;;;;2.40;81.54;100952.91;5104466;27;45360;-79
2021/12/23 08:48:43;;;;;;;;;33.25;31.25;;;;;2.44;81.25;100953.53;5103255;27;45305;-79
2021/12/23 08:51:09;;;;;;;;;41.00;36.75;;;;;2.46;81.26;100942.91;5103229;27;45227;-78
2021/12/23 08:53:34;;;;;;;;;50.75;44.25;;;;;2.53;81.59;100936.25;5105806;27;46023;-78
2021/12/23 08:56:00;;;;;;;;;44.75;39.25;;;;;2.63;81.19;100936.38;5105401;27;45377;-78
2021/12/23 08:58:25;;;;;;;;;40.50;36.25;;;;;2.64;81.28;100917.06;5102962;27;45312;-78
2021/12/23 09:00:50;;;;;;;;;47.25;41.50;;;;;2.81;80.79;100935.94;5103956;27;45297;-78
2021/12/23 09:03:16;;;;;;;;;43.00;37.25;;;;;2.86;81.33;100931.16;5107497;27;48239;-79
2021/12/23 09:05:42;;;;;;;;;54.25;45.75;;;;;2.85;80.84;100919.84;5103507;27;45339;-78
2021/12/23 09:08:09;;;;;;;;;46.50;39.75;;;;;3.02;81.46;100915.03;5107621;27;45336;-77
2021/12/23 09:10:36;;;;;;;;;47.25;41.25;;;;;3.03;81.40;100904.41;5102264;27;47079;-76
2021/12/23 09:13:02;;;;;;;;;47.50;39.25;;;;;3.19;81.37;100921.59;5104819;27;45219;-76
2021/12/23 09:15:28;;;;;;;;;47.00;37.75;;;;;3.28;81.67;100922.66;5106578;27;45323;-77
2021/12/23 09:17:54;;;;;;;;;51.00;39.75;;;;;3.21;80.80;100893.41;5106696;27;45152;-78
2021/12/23 09:20:21;;;;;;;;;53.25;44.50;;;;;3.40;81.13;100913.81;5103546;27;45549;-80
2021/12/23 09:22:48;;;;;;;;;51.25;42.25;;;;;3.51;81.39;100917.34;5101936;27;45288;-80
2021/12/23 09:25:23;;;;;;;;;55.50;46.25;;;;;3.53;80.44;100912.78;5101724;27;45412;-79
2021/12/23 09:33:02;;;;;;;;;44.25;37.50;;;;;3.57;80.56;100916.88;5101971;27;45232;-80
2021/12/23 09:35:30;;;;;;;;;49.75;40.25;;;;;3.68;80.48;100929.13;5101609;27;45290;-80
2021/12/23 09:37:56;;;;;;;;;47.50;38.50;;;;;3.73;80.29;100944.53;5113125;27;45394;-80
2021/12/23 09:40:23;;;;;;;;;46.50;40.50;;;;;3.65;80.43;100910.97;5121619;27;46133;-80
2021/12/23 09:42:49;;;;;;;;;45.75;39.50;;;;;3.75;80.65;100929.47;5123374;27;45498;-79
2021/12/23 09:45:18;;;;;;;;;44.00;36.75;;;;;3.89;80.24;100949.41;5123208;27;45339;-79
2021/12/23 09:47:47;;;;;;;;;47.00;40.75;;;;;3.90;80.38;100933.47;5122742;27;45283;-79
2021/12/23 09:50:17;;;;;;;;;46.75;39.25;;;;;4.05;80.56;100948.97;5128567;27;45268;-79
2021/12/23 09:52:47;;;;;;;;;48.00;38.75;;;;;4.10;79.98;100938.88;5127721;27;45210;-77
2021/12/23 09:55:15;;;;;;;;;44.00;38.75;;;;;4.11;79.95;100923.94;5130506;27;45274;-78
2021/12/23 09:57:43;;;;;;;;;46.25;39.25;;;;;4.21;79.78;100929.28;5130187;27;45274;-78
2021/12/23 10:00:11;;;;;;;;;40.50;36.00;;;;;4.31;79.90;100938.06;5132735;27;45486;-77
2021/12/23 10:02:40;;;;;;;;;50.00;39.00;;;;;4.26;79.55;100920.06;5131736;27;45360;-78
2021/12/23 10:05:07;;;;;;;;;45.50;40.00;;;;;4.35;79.76;100914.97;5127188;27;45278;-78
2021/12/23 10:07:32;;;;;;;;;44.75;36.50;;;;;4.40;79.44;100925.97;5121854;27;45337;-78
2021/12/23 10:10:04;;;;;;;;;43.25;37.75;;;;;4.43;79.55;100915.16;5121564;27;45523;-78
2021/12/23 10:32:50;;;;;;;;;46.75;38.75;;;;;4.84;79.32;100885.41;5098658;27;45343;-79
2021/12/23 10:37:17;;;;;;;;;49.75;42.75;;;;;4.98;79.11;100894.75;5107239;27;45224;-80
2021/12/23 10:39:48;;;;;;;;;49.25;40.75;;;;;5.02;79.08;100882.97;5121822;27;45424;-79
2021/12/23 10:42:18;;;;;;;;;45.50;40.50;;;;;5.00;79.53;100866.50;5124511;27;45391;-79
2021/12/23 10:44:59;;;;;;;;;47.25;38.00;;;;;5.14;79.09;100875.81;5121818;27;45373;-79
2021/12/23 10:47:59;;;;;;;;;43.75;39.50;;;;;5.20;78.90;100880.53;5121279;27;45523;-80
2021/12/23 10:53:07;;;;;;;;;50.25;40.50;;;;;5.26;78.97;100864.19;5121994;27;46448;-78
2021/12/23 10:58:18;;;;;;;;;45.00;39.00;;;;;5.31;78.69;100863.78;5121718;27;45365;-79
2021/12/23 11:00:49;;;;;;;;;45.75;38.00;;;;;5.36;78.96;100871.28;5121929;27;45396;-79
2021/12/23 11:03:30;;;;;;;;;49.50;38.50;;;;;5.40;78.80;100862.97;5123743;27;45365;-79
2021/12/23 11:06:16;;;;;;;;;48.50;36.25;;;;;5.39;78.84;100853.38;5124335;27;45371;-79
2021/12/23 11:08:53;;;;;;;;;36.75;34.00;;;;;5.53;78.86;100849.50;5122711;27;45324;-79
2021/12/23 11:48:15;;;;;;;;;46.75;38.25;;;;;6.44;78.50;100799.09;5099633;27;75236;-79
2021/12/23 11:53:07;;;;;;;;;45.00;38.75;;;;;6.53;77.77;100778.91;5087952;27;67623;-80
2021/12/23 11:55:33;;;;;;;;;43.50;38.50;;;;;6.53;78.37;100777.09;5086581;27;46086;-79
2021/12/23 12:00:42;;;;;;;;;45.75;39.25;;;;;6.63;78.18;100777.06;5086037;27;72914;-80
2021/12/23 12:03:09;;;;;;;;;49.25;40.75;;;;;6.80;78.00;100795.75;5089537;27;45570;-80
2021/12/23 12:05:37;;;;;;;;;52.25;42.50;;;;;6.88;77.46;100806.38;5087452;27;45334;-80
2021/12/23 12:08:08;;;;;;;;;46.25;38.75;;;;;6.98;77.78;100798.41;5087626;27;45265;-81
2021/12/23 12:10:36;;;;;;;;;45.00;37.50;;;;;7.04;78.08;100792.50;5089545;27;45400;-80
2021/12/23 12:13:09;;;;;;;;;48.75;40.50;;;;;7.13;77.69;100797.88;5090266;27;45487;-80
2021/12/23 12:15:38;;;;;;;;;46.75;38.00;;;;;7.11;77.45;100787.47;5082208;27;45355;-80
2021/12/23 12:18:09;;;;;;;;;52.25;41.75;;;;;6.99;77.31;100783.38;5080525;28;48073;-79
2021/12/23 12:20:42;;;;;;;;;38.00;33.75;;;;;6.94;77.64;100784.66;5098357;27;46682;-79
2021/12/23 12:23:22;;;;;;;;;48.75;40.25;;;;;6.97;77.69;100780.88;5098955;27;45386;-79
2021/12/23 12:25:56;;;;;;;;;50.25;41.00;;;;;6.91;77.70;100778.81;5083112;28;45539;-79
2021/12/23 12:28:26;;;;;;;;;43.00;36.00;;;;;6.99;77.90;100792.13;5080849;28;48054;-80
2021/12/23 12:30:53;;;;;;;;;43.25;37.25;;;;;7.02;78.28;100791.84;5082480;28;45315;-80
2021/12/23 12:33:18;;;;;;;;;40.50;35.00;;;;;7.05;78.54;100780.13;5097695;27;45339;-79
2021/12/23 12:35:58;;;;;;;;;37.00;34.00;;;;;7.07;78.18;100772.91;5080436;27;46418;-80
2021/12/23 12:38:26;;;;;;;;;39.00;35.50;;;;;7.06;78.74;100772.06;5115524;27;46732;-80
2021/12/23 12:40:54;;;;;;;;;39.75;35.25;;;;;7.13;78.66;100767.00;5123723;27;45332;-80